Time;durP1;ratioP1;P1;durP2;ratioP2;P2;SDS_P1;SDS_P2;PMS_P1;PMS_P2;Temp;Humidity;BMP_temperature;BMP_pressure;BME280_temperature;BME280_humidity;BME280_pressure;Samples;Min_cycle;Max_cycle;Signal;HPM_P1;HPM_P2
2024/03/29 00:02:24;;;;;;;10.20;4.60;;;;;;;10.46;78.94;98918.89;106049;1260;99309;-81
2024/03/29 00:05:09;;;;;;;4.60;3.50;;;;;;;10.46;78.82;98925.14;105948;1260;99408;-82
2024/03/29 00:07:54;;;;;;;6.40;3.60;;;;;;;10.46;78.90;98928.77;106101;1262;99132;-81
2024/03/29 00:10:40;;;;;;;5.90;3.40;;;;;;;10.45;79.07;98935.29;106075;1261;99780;-80
2024/03/29 00:13:25;;;;;;;12.20;4.10;;;;;;;10.46;78.97;98940.73;106099;1260;103990;-81
2024/03/29 00:16:11;;;;;;;6.50;3.70;;;;;;;10.46;79.00;98947.84;106070;1260;99255;-81
2024/03/29 00:18:57;;;;;;;7.10;3.70;;;;;;;10.46;79.50;98953.89;106174;1262;99223;-80
2024/03/29 00:21:42;;;;;;;5.80;3.30;;;;;;;10.45;79.91;98959.00;105955;1260;99356;-80
2024/03/29 00:24:28;;;;;;;8.00;3.80;;;;;;;10.43;79.95;98962.16;106088;1260;97707;-80
2024/03/29 00:27:13;;;;;;;5.10;3.30;;;;;;;10.40;79.89;98966.69;105946;1261;103487;-81
2024/03/29 00:29:59;;;;;;;4.30;2.70;;;;;;;10.37;80.07;98973.23;106012;1262;99251;-80
2024/03/29 00:32:44;;;;;;;5.90;3.10;;;;;;;10.33;80.24;98974.77;105980;1261;99432;-80
2024/03/29 00:35:30;;;;;;;5.40;2.90;;;;;;;10.32;80.85;98982.98;105993;1261;99413;-81
2024/03/29 00:38:16;;;;;;;6.30;2.80;;;;;;;10.30;80.72;98989.06;105940;1264;99229;-79
2024/03/29 00:41:02;;;;;;;4.50;3.00;;;;;;;10.28;81.26;98991.46;105887;1262;102698;-79
2024/03/29 00:43:48;;;;;;;6.00;2.90;;;;;;;10.25;81.20;98993.65;105484;1261;100375;-79
2024/03/29 00:46:34;;;;;;;4.70;2.70;;;;;;;10.22;80.90;99001.70;105388;1259;99242;-80
2024/03/29 00:49:19;;;;;;;3.90;2.70;;;;;;;10.21;81.32;99005.09;105388;1259;99342;-79
2024/03/29 00:52:05;;;;;;;5.40;3.00;;;;;;;10.20;81.21;99006.29;105538;1261;99248;-80
2024/03/29 00:54:50;;;;;;;4.70;2.80;;;;;;;10.21;80.74;99013.86;105429;1259;102713;-80
2024/03/29 00:57:35;;;;;;;4.40;3.20;;;;;;;10.20;80.23;99017.04;106043;1260;100107;-81
2024/03/29 01:00:21;;;;;;;4.30;2.80;;;;;;;10.19;80.23;99022.69;106107;1265;99522;-80
2024/03/29 01:03:06;;;;;;;6.40;3.10;;;;;;;10.19;79.90;99027.71;106045;1264;98977;-80
2024/03/29 01:05:53;;;;;;;6.40;3.20;;;;;;;10.19;79.87;99039.20;106060;1259;99279;-80
2024/03/29 01:08:39;;;;;;;4.30;2.70;;;;;;;10.18;79.55;99045.29;106042;1264;103429;-80
2024/03/29 01:11:24;;;;;;;5.50;2.80;;;;;;;10.18;79.39;99050.64;105973;1259;100295;-80
2024/03/29 01:14:10;;;;;;;3.80;2.90;;;;;;;10.18;79.22;99054.27;105965;1264;102788;-81
2024/03/29 01:16:55;;;;;;;7.80;3.50;;;;;;;10.18;79.22;99061.98;106070;1260;97614;-79
2024/03/29 01:19:41;;;;;;;7.20;3.10;;;;;;;10.18;79.15;99076.10;106015;1260;99881;-81
2024/03/29 01:22:26;;;;;;;4.10;3.20;;;;;;;10.18;79.23;99078.77;106057;1261;102685;-81
2024/03/29 01:25:14;;;;;;;4.70;3.50;;;;;;;10.17;79.00;99083.14;105976;1264;99359;-80
2024/03/29 01:27:59;;;;;;;6.20;3.70;;;;;;;10.17;78.89;99086.68;106044;1261;100924;-79
2024/03/29 01:30:54;;;;;;;4.40;3.10;;;;;;;10.17;78.84;99092.40;105597;1259;98199;-81
2024/03/29 01:33:41;;;;;;;5.40;3.20;;;;;;;10.16;78.96;99089.59;106177;1260;99267;-80
2024/03/29 01:36:26;;;;;;;4.90;3.00;;;;;;;10.15;78.82;99094.43;106207;1264;102734;-81
2024/03/29 01:39:14;;;;;;;4.30;2.90;;;;;;;10.15;78.70;99099.25;106066;1260;100466;-81
2024/03/29 01:41:59;;;;;;;4.10;3.10;;;;;;;10.15;78.62;99109.84;106505;1264;99234;-79
2024/03/29 01:44:45;;;;;;;4.30;2.60;;;;;;;10.13;78.45;99115.95;106030;1264;99312;-80
2024/03/29 01:47:30;;;;;;;5.10;2.90;;;;;;;10.12;78.29;99118.83;105507;1264;99837;-79
2024/03/29 01:50:16;;;;;;;4.40;2.80;;;;;;;10.11;78.54;99120.76;105520;1262;102757;-79
2024/03/29 01:53:02;;;;;;;4.00;2.40;;;;;;;10.10;78.14;99127.48;106185;1260;99150;-80
2024/03/29 01:55:47;;;;;;;5.10;2.60;;;;;;;10.09;78.29;99131.84;106140;1260;100700;-80
2024/03/29 01:58:33;;;;;;;4.30;2.20;;;;;;;10.09;78.47;99138.42;106034;1265;99367;-79
2024/03/29 02:01:20;;;;;;;4.50;2.70;;;;;;;10.09;78.27;99138.84;105684;1260;100963;-80
2024/03/29 02:04:06;;;;;;;4.90;2.40;;;;;;;10.08;77.82;99145.67;105565;1264;103940;-80
2024/03/29 02:06:52;;;;;;;4.00;2.40;;;;;;;10.08;78.01;99156.00;105596;1261;100256;-81
2024/03/29 02:09:37;;;;;;;3.90;2.40;;;;;;;10.07;77.89;99168.11;106069;1259;100593;-80
2024/03/29 02:12:23;;;;;;;4.90;2.60;;;;;;;10.05;77.63;99176.94;106078;1259;99243;-79
2024/03/29 02:15:15;;;;;;;3.70;2.60;;;;;;;10.03;77.60;99183.33;105622;1261;99751;-81
2024/03/29 02:18:00;;;;;;;4.00;2.10;;;;;;;10.02;77.58;99188.52;105580;1264;103407;-79
2024/03/29 02:20:46;;;;;;;4.20;2.50;;;;;;;10.00;77.29;99196.81;106131;1263;100337;-80
2024/03/29 02:23:34;;;;;;;4.70;3.00;;;;;;;9.99;77.50;99204.43;105561;1264;99190;-80
2024/03/29 02:26:20;;;;;;;4.80;2.70;;;;;;;9.98;77.28;99213.54;106294;1259;99239;-81
2024/03/29 02:29:05;;;;;;;5.00;2.40;;;;;;;9.97;77.40;99221.10;106096;1259;99324;-80
2024/03/29 02:31:51;;;;;;;4.90;2.70;;;;;;;9.96;77.41;99228.03;106038;1264;102699;-78
2024/03/29 02:34:36;;;;;;;4.40;2.20;;;;;;;9.95;77.54;99235.11;105552;1264;99094;-80
2024/03/29 02:37:22;;;;;;;4.90;2.70;;;;;;;9.95;77.47;99243.43;105496;1261;99354;-79
2024/03/29 02:40:08;;;;;;;5.40;2.90;;;;;;;9.93;77.14;99251.30;105970;1260;99922;-79
2024/03/29 02:42:54;;;;;;;4.20;2.70;;;;;;;9.91;77.17;99258.23;106069;1264;99763;-79
2024/03/29 02:45:40;;;;;;;4.20;2.70;;;;;;;9.90;76.97;99264.45;106075;1259;102731;-80
2024/03/29 02:48:25;;;;;;;5.10;3.10;;;;;;;9.88;76.83;99270.79;106203;1261;100389;-80
2024/03/29 02:51:11;;;;;;;4.10;2.50;;;;;;;9.85;77.09;99273.52;105983;1265;100191;-80
2024/03/29 02:53:56;;;;;;;4.00;2.40;;;;;;;9.83;77.21;99275.39;105602;1260;99307;-80
2024/03/29 02:56:41;;;;;;;7.80;2.80;;;;;;;9.80;76.98;99277.42;105439;1262;101034;-79
2024/03/29 02:59:26;;;;;;;5.50;3.50;;;;;;;9.78;77.10;99279.27;106018;1261;102688;-79
2024/03/29 03:02:12;;;;;;;4.30;2.90;;;;;;;9.75;76.96;99289.70;105511;1260;100412;-82
2024/03/29 03:04:59;;;;;;;7.70;4.00;;;;;;;9.71;77.15;99297.74;105916;1260;99325;-80
2024/03/29 03:11:00;;;;;;;6.50;5.00;;;;;;;9.63;77.24;99308.48;105515;1262;99850;-77
2024/03/29 03:13:46;;;;;;;4.00;3.00;;;;;;;9.61;77.33;99310.95;105505;1260;103479;-81
2024/03/29 03:16:31;;;;;;;5.40;3.60;;;;;;;9.57;77.39;99316.60;105495;1261;100480;-80
2024/03/29 03:19:23;;;;;;;3.40;3.00;;;;;;;9.54;77.60;99323.70;106018;1261;99333;-80
2024/03/29 03:22:08;;;;;;;5.50;2.80;;;;;;;9.51;77.49;99332.34;106038;1259;99303;-82
2024/03/29 03:24:54;;;;;;;4.20;2.30;;;;;;;9.48;77.55;99336.61;105919;1259;99400;-83
2024/03/29 03:27:39;;;;;;;3.80;2.90;;;;;;;9.46;77.60;99341.97;106048;1261;104108;-83
2024/03/29 03:30:25;;;;;;;4.60;3.10;;;;;;;9.43;77.41;99343.23;106002;1264;99253;-81
2024/03/29 03:33:11;;;;;;;3.50;2.60;;;;;;;9.40;77.55;99347.58;106151;1262;99305;-81
2024/03/29 03:35:56;;;;;;;4.60;2.90;;;;;;;9.37;77.55;99349.91;106018;1261;99311;-79
2024/03/29 03:38:41;;;;;;;4.10;3.00;;;;;;;9.33;77.37;99355.72;105389;1265;99258;-81
2024/03/29 03:41:27;;;;;;;4.40;3.00;;;;;;;9.31;77.54;99354.87;106147;1261;103903;-82
2024/03/29 03:44:13;;;;;;;4.40;2.80;;;;;;;9.30;77.64;99356.44;105942;1261;99687;-81
2024/03/29 03:46:58;;;;;;;5.40;2.50;;;;;;;9.28;77.70;99358.33;105992;1262;99300;-79
2024/03/29 03:49:43;;;;;;;3.20;2.50;;;;;;;9.24;77.58;99362.20;105991;1263;99340;-80
2024/03/29 03:52:29;;;;;;;4.80;2.80;;;;;;;9.21;77.63;99363.20;106057;1260;99325;-79
2024/03/29 03:55:15;;;;;;;5.30;2.70;;;;;;;9.18;77.63;99361.84;106159;1260;152307;-81
2024/03/29 03:58:01;;;;;;;4.40;2.70;;;;;;;9.14;77.66;99358.77;106185;1259;100642;-81
2024/03/29 04:00:46;;;;;;;4.20;2.90;;;;;;;9.12;77.58;99359.88;105987;1260;99898;-81
2024/03/29 04:03:32;;;;;;;4.90;2.90;;;;;;;9.11;77.64;99355.04;106097;1264;99325;-81
2024/03/29 04:06:17;;;;;;;4.10;3.00;;;;;;;9.10;77.56;99360.09;106046;1264;99199;-81
2024/03/29 04:09:03;;;;;;;4.90;2.90;;;;;;;9.07;77.49;99365.02;105994;1262;102681;-81
2024/03/29 04:11:49;;;;;;;5.00;3.20;;;;;;;9.03;77.57;99370.40;106138;1264;100351;-81
2024/03/29 04:14:35;;;;;;;5.20;3.00;;;;;;;9.00;77.57;99372.98;106106;1260;99387;-81
2024/03/29 04:17:23;;;;;;;4.50;3.00;;;;;;;8.99;77.67;99377.93;106145;1264;99241;-80
2024/03/29 04:20:09;;;;;;;4.50;2.20;;;;;;;8.96;77.57;99385.25;106561;1260;99856;-80
2024/03/29 04:22:54;;;;;;;3.90;2.80;;;;;;;8.94;77.50;99392.02;105908;1265;102726;-81
2024/03/29 04:25:39;;;;;;;4.40;2.70;;;;;;;8.90;77.46;99404.92;106036;1265;100499;-82
2024/03/29 04:28:26;;;;;;;4.20;2.70;;;;;;;8.85;77.28;99418.15;106023;1264;98344;-81
2024/03/29 04:31:11;;;;;;;3.70;2.80;;;;;;;8.77;77.62;99436.25;106025;1259;99231;-80
2024/03/29 04:33:56;;;;;;;4.40;3.10;;;;;;;8.72;77.68;99442.68;106016;1259;99386;-80
2024/03/29 04:36:42;;;;;;;5.10;2.90;;;;;;;8.68;78.00;99440.17;105963;1260;102681;-81
2024/03/29 04:39:27;;;;;;;6.20;3.10;;;;;;;8.64;77.96;99441.93;106166;1260;100046;-81
2024/03/29 04:42:14;;;;;;;5.20;3.50;;;;;;;8.58;78.10;99452.85;106003;1264;99325;-79
2024/03/29 04:45:00;;;;;;;4.10;3.00;;;;;;;8.55;78.35;99454.69;105594;1264;99335;-80
2024/03/29 04:47:45;;;;;;;5.90;3.30;;;;;;;8.51;78.37;99456.86;106105;1261;99873;-80
2024/03/29 04:50:31;;;;;;;4.70;3.50;;;;;;;8.50;78.56;99457.30;105962;1262;104306;-81
2024/03/29 04:53:16;;;;;;;4.20;3.40;;;;;;;8.52;78.47;99460.48;105995;1259;99193;-80
2024/03/29 04:56:02;;;;;;;5.70;3.20;;;;;;;8.50;78.44;99459.23;106151;1259;99307;-80
2024/03/29 04:58:47;;;;;;;4.90;2.90;;;;;;;8.48;78.66;99457.25;105966;1274;99325;-80
2024/03/29 05:01:35;;;;;;;6.80;3.60;;;;;;;8.49;78.71;99462.59;106308;1259;99315;-81
2024/03/29 05:04:25;;;;;;;5.50;3.00;;;;;;;8.49;78.71;99472.37;106249;1261;104066;-79
2024/03/29 05:07:10;;;;;;;5.50;3.30;;;;;;;8.48;78.62;99474.29;106205;1264;99342;-81
2024/03/29 05:09:56;;;;;;;6.60;3.70;;;;;;;8.47;78.91;99471.04;106124;1262;99335;-80
2024/03/29 05:12:41;;;;;;;5.70;2.90;;;;;;;8.46;78.97;99473.71;106081;1259;99444;-81
2024/03/29 05:15:27;;;;;;;4.80;2.90;;;;;;;8.46;79.11;99471.73;105968;1260;97689;-80
2024/03/29 05:18:13;;;;;;;4.80;3.10;;;;;;;8.47;79.03;99469.27;106106;1264;103554;-80
2024/03/29 05:20:58;;;;;;;5.50;3.00;;;;;;;8.48;78.99;99469.86;105508;1262;99717;-79
2024/03/29 05:23:44;;;;;;;7.60;3.00;;;;;;;8.50;79.23;99466.59;106013;1261;99591;-80
2024/03/29 05:26:30;;;;;;;6.40;3.10;;;;;;;8.52;79.33;99469.84;106252;1264;99328;-81
2024/03/29 05:29:16;;;;;;;4.90;3.00;;;;;;;8.55;79.30;99472.01;105588;1261;99801;-78
2024/03/29 05:32:01;;;;;;;5.60;2.70;;;;;;;8.58;79.33;99474.24;105571;1265;102909;-79
2024/03/29 05:34:47;;;;;;;5.00;3.20;;;;;;;8.59;79.24;99474.61;105586;1264;99294;-79
2024/03/29 05:37:33;;;;;;;5.20;2.80;;;;;;;8.62;79.49;99473.39;105526;1262;99450;-80
2024/03/29 05:40:18;;;;;;;3.80;2.70;;;;;;;8.67;79.60;99477.55;106259;1259;99292;-79
2024/03/29 05:43:04;;;;;;;5.40;3.10;;;;;;;8.72;79.48;99479.36;105549;1264;99855;-79
2024/03/29 05:45:52;;;;;;;4.80;3.00;;;;;;;8.75;79.49;99476.95;105539;1261;102701;-79
2024/03/29 05:48:38;;;;;;;6.10;3.20;;;;;;;8.79;79.51;99480.86;105990;1261;99332;-80
2024/03/29 05:51:24;;;;;;;4.00;3.20;;;;;;;8.82;79.21;99489.38;105997;1260;99993;-79
2024/03/29 05:54:09;;;;;;;7.90;3.40;;;;;;;8.85;79.31;99490.45;106276;1261;99264;-81
2024/03/29 05:56:54;;;;;;;6.20;3.00;;;;;;;8.90;79.85;99489.02;105590;1264;99328;-80
2024/03/29 05:59:40;;;;;;;6.60;3.90;;;;;;;8.96;79.69;99492.02;105520;1259;102788;-79
2024/03/29 06:02:26;;;;;;;4.80;2.90;;;;;;;9.02;79.26;99498.45;105593;1261;100926;-79
2024/03/29 06:05:12;;;;;;;4.80;3.00;;;;;;;9.07;79.31;99501.33;105475;1264;99425;-81
2024/03/29 06:07:57;;;;;;;3.70;2.70;;;;;;;9.13;79.30;99498.22;105505;1264;99338;-78
2024/03/29 06:10:43;;;;;;;6.70;3.60;;;;;;;9.18;79.08;99507.27;105674;1260;100943;-80
2024/03/29 06:19:36;;;;;;;4.10;2.70;;;;;;;9.42;78.67;99521.39;105622;1262;99340;-83
2024/03/29 06:22:24;;;;;;;5.00;3.30;;;;;;;9.49;78.46;99523.23;105756;1267;99343;-82
2024/03/29 06:25:10;;;;;;;9.40;3.60;;;;;;;9.56;78.26;99525.87;105753;1263;99932;-82
2024/03/29 06:27:56;;;;;;;4.70;3.00;;;;;;;9.63;77.96;99523.42;105803;1260;103998;-82
2024/03/29 06:30:41;;;;;;;6.80;2.80;;;;;;;9.70;77.59;99525.94;105697;1259;99868;-83
2024/03/29 06:33:27;;;;;;;5.00;3.10;;;;;;;9.76;77.33;99530.67;105684;1259;99255;-82
2024/03/29 06:36:12;;;;;;;7.40;2.90;;;;;;;9.83;77.27;99538.97;105960;1259;99183;-85
2024/03/29 06:38:58;;;;;;;6.00;3.70;;;;;;;9.89;76.98;99544.97;106099;1262;99775;-84
2024/03/29 06:41:43;;;;;;;5.60;3.40;;;;;;;9.98;76.83;99551.83;105990;1264;104042;-85
2024/03/29 06:44:29;;;;;;;5.80;3.60;;;;;;;10.05;76.56;99553.79;105975;1262;99907;-85
2024/03/29 06:47:15;;;;;;;7.10;3.50;;;;;;;10.13;76.38;99553.55;105986;1260;99236;-84
2024/03/29 06:50:01;;;;;;;8.30;2.80;;;;;;;10.21;76.15;99560.02;105751;1266;99419;-83
2024/03/29 06:52:47;;;;;;;6.60;2.90;;;;;;;10.27;75.51;99562.30;105740;1264;99385;-89
2024/03/29 06:55:33;;;;;;;5.00;2.50;;;;;;;10.33;75.33;99557.13;106066;1267;104022;-87
2024/03/29 06:58:19;;;;;;;3.20;2.50;;;;;;;10.39;75.32;99557.36;105829;1259;101348;-82
2024/03/29 07:01:05;;;;;;;3.60;2.30;;;;;;;10.46;75.24;99556.23;105897;1264;99460;-81
2024/03/29 07:03:51;;;;;;;4.00;2.60;;;;;;;10.52;74.22;99556.66;105642;1260;99424;-83
2024/03/29 07:06:38;;;;;;;5.10;2.40;;;;;;;10.58;74.14;99553.55;105959;1259;99822;-83
2024/03/29 07:09:23;;;;;;;5.60;2.50;;;;;;;10.64;73.80;99551.26;106200;1259;102779;-87
2024/03/29 07:12:09;;;;;;;7.00;3.00;;;;;;;10.70;73.89;99553.00;105572;1260;99323;-82
2024/03/29 07:14:54;;;;;;;4.00;2.30;;;;;;;10.78;74.10;99553.34;105972;1259;99490;-79
2024/03/29 07:17:40;;;;;;;5.10;2.70;;;;;;;10.87;73.50;99556.96;105650;1260;99349;-86
2024/03/29 07:20:26;;;;;;;5.50;2.70;;;;;;;10.93;72.78;99559.45;105716;1259;97975;-85
2024/03/29 07:23:14;;;;;;;3.00;2.40;;;;;;;10.99;72.60;99561.44;105720;1264;102862;-80
2024/03/29 07:26:04;;;;;;;5.60;2.50;;;;;;;11.04;72.41;99559.72;105667;1265;99351;-82
2024/03/29 07:28:49;;;;;;;3.70;2.70;;;;;;;11.11;72.69;99558.15;105631;1259;99326;-88
2024/03/29 07:31:35;;;;;;;3.80;2.50;;;;;;;11.21;73.00;99557.52;105632;1260;99372;-85
2024/03/29 07:34:21;;;;;;;6.40;3.30;;;;;;;11.30;71.92;99556.38;105836;1259;99978;-84
2024/03/29 07:37:09;;;;;;;5.50;2.10;;;;;;;11.35;71.01;99556.09;105982;1267;102748;-87
2024/03/29 07:39:56;;;;;;;4.40;1.80;;;;;;;11.39;70.90;99558.45;105795;1263;100534;-83
2024/03/29 07:42:42;;;;;;;2.40;1.60;;;;;;;11.44;70.83;99557.94;105549;1261;100135;-86
2024/03/29 07:45:28;;;;;;;3.80;2.10;;;;;;;11.51;70.74;99561.02;105928;1267;99348;-79
2024/03/29 07:48:16;;;;;;;4.40;1.80;;;;;;;11.57;70.41;99559.48;105884;1265;97141;-83
2024/03/29 07:51:02;;;;;;;3.90;1.80;;;;;;;11.64;70.36;99566.58;105991;1264;102677;-83
2024/03/29 07:53:47;;;;;;;4.10;2.30;;;;;;;11.71;69.89;99569.55;105804;1261;99710;-86
2024/03/29 07:56:33;;;;;;;5.70;2.20;;;;;;;11.76;69.66;99567.45;105738;1261;99334;-81
2024/03/29 07:59:19;;;;;;;3.20;1.90;;;;;;;11.82;69.81;99574.13;106063;1262;99336;-83
2024/03/29 08:02:05;;;;;;;3.70;1.90;;;;;;;11.90;69.47;99590.61;105581;1260;99344;-86
2024/03/29 08:04:52;;;;;;;3.20;2.00;;;;;;;11.97;69.02;99605.88;105774;1263;102666;-86
2024/03/29 08:07:38;;;;;;;2.60;1.70;;;;;;;12.03;68.58;99612.63;105845;1262;100466;-86
2024/03/29 08:10:24;;;;;;;10.00;3.30;;;;;;;12.12;69.29;99601.52;106005;1260;106948;-85
2024/03/29 08:13:10;;;;;;;3.70;1.60;;;;;;;12.18;68.76;99597.58;106605;1264;100752;-87
2024/03/29 08:15:58;;;;;;;2.80;1.50;;;;;;;12.25;68.28;99590.77;106020;1265;99310;-86
2024/03/29 08:18:47;;;;;;;5.50;1.60;;;;;;;12.33;68.01;99588.54;106403;1260;102697;-81
2024/03/29 08:21:36;;;;;;;3.30;1.90;;;;;;;12.38;67.11;99588.70;106160;1264;100346;-83
2024/03/29 08:24:23;;;;;;;5.10;2.00;;;;;;;12.44;66.91;99591.21;106122;1260;99325;-88
2024/03/29 08:27:09;;;;;;;3.70;1.70;;;;;;;12.50;66.73;99592.85;106353;1266;99211;-87
2024/03/29 08:29:54;;;;;;;2.90;1.50;;;;;;;12.54;66.16;99587.34;105711;1261;99255;-85
2024/03/29 08:32:40;;;;;;;4.30;1.40;;;;;;;12.60;65.65;99596.11;106303;1264;102740;-84
2024/03/29 08:35:26;;;;;;;2.10;1.10;;;;;;;12.65;65.47;99595.23;105856;1264;100498;-82
2024/03/29 08:38:13;;;;;;;3.20;1.20;;;;;;;12.71;65.06;99594.52;106090;1265;99317;-84
2024/03/29 08:40:58;;;;;;;2.70;1.20;;;;;;;12.76;65.35;99597.48;105575;1265;99312;-80
2024/03/29 08:43:43;;;;;;;1.60;1.00;;;;;;;12.84;65.78;99607.56;105924;1265;99750;-79
2024/03/29 08:46:29;;;;;;;2.30;1.30;;;;;;;12.91;65.57;99613.32;105855;1263;104813;-85
2024/03/29 08:49:15;;;;;;;3.00;1.80;;;;;;;12.97;65.58;99618.38;105818;1265;99486;-83
2024/03/29 08:52:04;;;;;;;3.60;1.70;;;;;;;13.03;65.51;99626.98;106165;1265;97894;-83
2024/03/29 08:54:49;;;;;;;2.30;1.40;;;;;;;13.08;65.42;99626.85;105816;1264;99236;-85
2024/03/29 08:57:36;;;;;;;3.80;1.50;;;;;;;13.16;65.14;99632.59;106324;1261;97089;-79
2024/03/29 09:00:21;;;;;;;5.70;2.10;;;;;;;13.21;64.65;99638.73;106040;1265;103971;-87
2024/03/29 09:03:07;;;;;;;5.10;2.00;;;;;;;13.22;64.42;99640.33;106004;1265;100381;-86
2024/03/29 09:05:53;;;;;;;3.90;1.80;;;;;;;13.24;64.14;99643.39;106024;1265;99365;-80
2024/03/29 09:08:38;;;;;;;3.10;1.60;;;;;;;13.25;63.90;99641.77;106416;1265;99823;-82
2024/03/29 09:11:24;;;;;;;3.00;1.80;;;;;;;13.30;63.70;99639.30;106915;1260;99417;-82
2024/03/29 09:14:12;;;;;;;2.10;1.80;;;;;;;13.33;63.25;99639.52;106372;1265;102700;-82
2024/03/29 09:16:57;;;;;;;2.40;1.60;;;;;;;13.36;62.98;99636.52;106189;1259;99911;-81
2024/03/29 09:19:43;;;;;;;4.90;1.70;;;;;;;13.40;63.26;99638.42;106090;1262;99421;-81
2024/03/29 09:22:28;;;;;;;2.80;1.80;;;;;;;13.47;63.02;99642.46;106313;1259;99232;-81
2024/03/29 09:25:14;;;;;;;4.40;1.40;;;;;;;13.52;62.80;99642.94;106371;1260;97767;-81
2024/03/29 09:28:00;;;;;;;3.00;1.90;;;;;;;13.58;62.95;99635.77;106212;1265;102797;-81
2024/03/29 09:30:45;;;;;;;2.40;1.70;;;;;;;13.65;62.83;99637.37;106251;1259;99249;-81
2024/03/29 09:33:30;;;;;;;6.70;1.70;;;;;;;13.69;62.09;99630.67;106040;1259;99183;-81
2024/03/29 09:36:16;;;;;;;3.40;1.50;;;;;;;13.70;61.52;99632.82;106240;1259;99274;-81
2024/03/29 09:39:04;;;;;;;6.10;2.10;;;;;;;13.72;61.41;99629.42;106058;1260;99320;-81
2024/03/29 09:41:50;;;;;;;4.90;2.10;;;;;;;13.76;61.87;99638.23;106035;1264;103984;-80
2024/03/29 09:44:36;;;;;;;3.00;2.00;;;;;;;13.82;61.70;99648.24;106264;1264;100759;-80
2024/03/29 09:47:22;;;;;;;3.60;2.00;;;;;;;13.87;60.75;99649.78;106069;1265;99316;-81
2024/03/29 09:50:08;;;;;;;4.30;2.10;;;;;;;13.91;60.58;99651.33;106291;1261;99681;-80
2024/03/29 09:52:55;;;;;;;3.00;1.70;;;;;;;13.97;60.64;99649.63;106387;1262;99510;-80
2024/03/29 09:55:41;;;;;;;1.60;1.40;;;;;;;14.04;60.82;99651.91;106568;1259;104088;-81
2024/03/29 09:58:27;;;;;;;2.50;1.30;;;;;;;14.11;60.57;99652.74;106489;1262;100485;-80
2024/03/29 10:01:12;;;;;;;3.90;1.90;;;;;;;14.16;59.89;99645.22;106551;1264;99280;-80
2024/03/29 10:04:00;;;;;;;2.80;1.80;;;;;;;14.20;60.39;99643.54;106488;1260;99245;-79
2024/03/29 10:06:49;;;;;;;2.80;1.70;;;;;;;14.28;60.38;99643.20;106323;1259;98009;-81
2024/03/29 10:09:36;;;;;;;3.70;1.90;;;;;;;14.36;60.09;99641.08;106317;1265;103968;-80
2024/03/29 10:12:21;;;;;;;5.80;2.10;;;;;;;14.42;59.97;99638.65;106551;1262;99418;-81
2024/03/29 10:15:18;;;;;;;4.30;1.50;;;;;;;14.52;60.17;99638.30;106402;1266;99318;-81
2024/03/29 10:18:03;;;;;;;2.80;1.60;;;;;;;14.63;59.84;99632.53;106430;1264;99223;-80
2024/03/29 10:21:06;;;;;;;4.40;1.90;;;;;;;14.70;59.36;99636.63;106541;1264;98192;-80
2024/03/29 10:23:52;;;;;;;4.60;1.50;;;;;;;14.76;58.91;99638.42;106195;1263;103445;-80
2024/03/29 10:26:38;;;;;;;3.70;1.40;;;;;;;14.81;58.23;99648.03;106364;1262;100948;-80
2024/03/29 10:29:29;;;;;;;3.70;1.40;;;;;;;14.84;57.55;99652.04;106347;1264;99310;-80
2024/03/29 10:32:14;;;;;;;3.00;1.30;;;;;;;14.85;57.14;99655.88;105861;1265;98037;-78
2024/03/29 10:35:02;;;;;;;3.50;1.60;;;;;;;14.86;57.27;99654.54;104947;1264;99782;-77
2024/03/29 10:37:48;;;;;;;3.90;1.10;;;;;;;14.88;57.58;99651.46;104874;1264;102694;-78
2024/03/29 10:40:34;;;;;;;2.20;1.00;;;;;;;14.92;57.05;99648.33;104837;1265;100481;-77
2024/03/29 10:43:20;;;;;;;3.80;1.30;;;;;;;14.96;56.85;99646.95;105140;1266;100645;-78
2024/03/29 10:46:06;;;;;;;4.30;1.30;;;;;;;15.02;56.64;99647.13;104762;1266;99326;-76
2024/03/29 10:48:52;;;;;;;2.70;1.00;;;;;;;15.12;56.74;99640.27;104941;1261;99774;-77
2024/03/29 10:51:39;;;;;;;2.30;1.10;;;;;;;15.17;55.84;99640.86;104808;1262;102715;-77
2024/03/29 10:54:25;;;;;;;5.40;1.30;;;;;;;15.22;55.78;99644.08;104924;1265;100320;-77
2024/03/29 10:57:24;;;;;;;2.00;1.20;;;;;;;15.24;55.29;99646.88;105073;1270;99576;-76
2024/03/29 11:00:20;;;;;;;2.60;1.20;;;;;;;15.22;55.36;99649.22;104882;1266;99859;-80
2024/03/29 11:03:12;;;;;;;1.00;0.80;;;;;;;15.25;55.73;99653.77;104934;1261;99921;-76
2024/03/29 11:06:04;;;;;;;2.40;1.00;;;;;;;15.31;54.74;99655.49;104944;1262;104019;-76
2024/03/29 11:08:52;;;;;;;3.30;1.20;;;;;;;15.36;54.58;99660.55;104900;1264;100384;-77
2024/03/29 11:11:39;;;;;;;3.40;0.90;;;;;;;15.40;54.40;99662.75;106116;1264;99318;-77
2024/03/29 11:14:34;;;;;;;4.20;1.30;;;;;;;15.45;53.76;99654.48;104956;1265;99331;-77
2024/03/29 11:17:19;;;;;;;4.70;1.30;;;;;;;15.51;53.60;99641.34;104805;1265;99837;-76
2024/03/29 11:20:06;;;;;;;3.40;1.10;;;;;;;15.55;53.80;99635.17;105069;1261;103409;-75
2024/03/29 11:22:54;;;;;;;3.70;1.20;;;;;;;15.60;54.22;99630.91;104994;1267;100359;-76
2024/03/29 11:25:43;;;;;;;4.00;1.20;;;;;;;15.65;53.83;99633.16;104854;1265;99428;-76
2024/03/29 11:28:31;;;;;;;3.40;1.10;;;;;;;15.68;52.86;99631.11;105014;1262;99310;-77
2024/03/29 11:31:16;;;;;;;2.60;1.00;;;;;;;15.71;52.63;99623.83;105600;1260;100892;-79
2024/03/29 11:34:02;;;;;;;5.70;1.20;;;;;;;15.77;52.56;99625.64;105128;1265;102683;-76
2024/03/29 11:36:47;;;;;;;2.60;1.10;;;;;;;15.82;52.97;99629.09;104794;1267;100603;-77
2024/03/29 11:39:34;;;;;;;5.80;1.50;;;;;;;15.88;52.64;99636.88;104789;1267;99495;-77
2024/03/29 11:42:36;;;;;;;2.60;1.10;;;;;;;15.93;52.63;99651.38;104861;1265;99353;-77
2024/03/29 11:45:23;;;;;;;;;;;;;;;16.01;53.01;99650.16;104865;1262;100518;-77
2024/03/29 11:48:14;;;;;;;3.90;1.30;;;;;;;16.07;52.83;99647.61;104881;1265;102745;-76
2024/03/29 11:51:01;;;;;;;4.60;1.20;;;;;;;16.15;52.42;99639.58;104966;1265;99779;-76
2024/03/29 11:53:46;;;;;;;1.70;0.80;;;;;;;16.22;51.83;99631.95;105487;1265;99291;-78
2024/03/29 11:56:31;;;;;;;2.10;1.00;;;;;;;16.23;51.20;99624.79;105870;1266;99314;-80
2024/03/29 11:59:17;;;;;;;1.30;0.70;;;;;;;16.27;51.16;99624.11;105586;1265;99320;-77
2024/03/29 12:02:07;;;;;;;5.10;0.80;;;;;;;16.34;50.58;99636.10;105218;1260;104266;-89
2024/03/29 12:04:53;;;;;;;2.00;0.80;;;;;;;16.39;49.75;99643.47;105860;1261;100372;-85
2024/03/29 12:07:39;;;;;;;2.80;1.00;;;;;;;16.40;49.82;99650.62;105776;1267;99372;-83
2024/03/29 12:10:29;;;;;;;1.40;0.90;;;;;;;16.42;49.99;99653.25;105753;1267;99375;-78
2024/03/29 12:13:17;;;;;;;2.20;0.80;;;;;;;16.46;49.62;99645.25;104995;1267;99775;-78
2024/03/29 12:16:03;;;;;;;4.00;1.10;;;;;;;16.52;49.75;99648.89;105007;1260;102650;-79
2024/03/29 12:18:49;;;;;;;3.30;1.00;;;;;;;16.63;50.37;99646.73;105245;1265;100382;-79
2024/03/29 12:21:35;;;;;;;3.20;1.00;;;;;;;16.70;49.59;99640.61;105190;1272;99282;-80
2024/03/29 12:24:21;;;;;;;2.80;0.80;;;;;;;16.74;49.39;99644.83;105254;1261;99332;-78
2024/03/29 12:27:06;;;;;;;4.10;0.70;;;;;;;16.80;49.12;99658.54;105241;1267;99765;-79
2024/03/29 12:29:52;;;;;;;1.40;0.60;;;;;;;16.84;48.35;99665.30;105186;1266;104497;-78
2024/03/29 12:32:38;;;;;;;4.30;1.10;;;;;;;16.88;48.40;99663.95;104881;1268;99394;-77
2024/03/29 12:35:23;;;;;;;2.20;0.60;;;;;;;16.91;48.13;99654.58;104828;1267;99318;-77
2024/03/29 12:38:13;;;;;;;3.10;0.90;;;;;;;16.94;48.33;99652.45;105153;1267;99309;-85
2024/03/29 12:40:58;;;;;;;2.60;1.10;;;;;;;17.00;48.08;99654.48;105667;1264;99847;-84
2024/03/29 12:43:45;;;;;;;3.80;0.80;;;;;;;17.04;48.09;99658.37;105592;1260;102798;-85
2024/03/29 12:46:31;;;;;;;1.50;0.60;;;;;;;17.09;47.81;99666.17;105869;1264;99374;-84
2024/03/29 12:49:16;;;;;;;1.50;0.80;;;;;;;17.14;47.12;99665.36;105928;1268;99182;-82
2024/03/29 12:52:05;;;;;;;1.20;0.70;;;;;;;17.17;46.22;99659.61;106211;1262;99257;-81
2024/03/29 12:54:51;;;;;;;3.50;0.80;;;;;;;17.20;46.24;99660.36;105689;1266;99320;-84
2024/03/29 12:57:42;;;;;;;3.10;0.90;;;;;;;17.23;45.51;99652.91;105875;1268;103449;-84
2024/03/29 13:00:27;;;;;;;3.20;0.80;;;;;;;17.22;45.04;99656.17;105773;1267;99359;-82
2024/03/29 13:03:13;;;;;;;2.50;1.10;;;;;;;17.27;45.39;99654.59;105797;1266;99391;-84